createdAt,value
2023-05-02T00:01:26.228Z,14.30
2023-05-02T00:03:53.347Z,14.70
2023-05-02T00:06:20.275Z,14.60
2023-05-02T00:08:49.433Z,14.30
2023-05-02T00:11:16.229Z,14.40
2023-05-02T00:13:44.069Z,14.10
2023-05-02T00:16:11.319Z,14.60
2023-05-02T00:18:38.042Z,13.90
2023-05-02T00:21:04.779Z,13.90
2023-05-02T00:23:31.420Z,14.40
2023-05-02T00:25:58.195Z,13.70
2023-05-02T00:28:26.451Z,13.50
2023-05-02T00:30:53.515Z,13.90
2023-05-02T00:33:20.373Z,13.60
2023-05-02T00:35:47.020Z,14.00
2023-05-02T00:38:13.746Z,13.40
2023-05-02T00:40:48.271Z,12.90
2023-05-02T00:43:16.101Z,13.20
2023-05-02T00:45:44.096Z,13.30
2023-05-02T00:48:11.852Z,12.90
2023-05-02T00:50:42.914Z,13.00
2023-05-02T00:53:10.886Z,13.20
2023-05-02T00:55:37.691Z,13.30
2023-05-02T00:58:16.486Z,13.50
2023-05-02T01:01:08.687Z,13.90
2023-05-02T01:03:57.402Z,14.20
2023-05-02T01:06:42.359Z,13.70
2023-05-02T01:09:22.767Z,13.30
2023-05-02T01:12:19.329Z,13.40
2023-05-02T01:14:52.429Z,13.60
2023-05-02T01:17:20.434Z,13.20
2023-05-02T01:20:17.206Z,12.40
2023-05-02T01:22:44.965Z,12.30
2023-05-02T01:25:31.535Z,12.60
2023-05-02T01:28:16.282Z,13.30
2023-05-02T01:30:46.489Z,13.40
2023-05-02T01:33:17.014Z,12.90
2023-05-02T01:35:44.640Z,13.60
2023-05-02T01:38:15.299Z,12.90
2023-05-02T01:40:45.900Z,12.70
2023-05-02T01:43:14.501Z,13.10
2023-05-02T01:45:44.366Z,12.90
2023-05-02T01:48:13.545Z,13.40
2023-05-02T01:50:43.111Z,13.00
2023-05-02T01:53:13.750Z,12.50
2023-05-02T01:55:43.389Z,13.50
2023-05-02T01:58:11.496Z,13.30
2023-05-02T02:00:39.840Z,12.80
2023-05-02T02:03:09.350Z,12.10
2023-05-02T02:05:37.763Z,12.30
2023-05-02T02:08:05.908Z,12.70
2023-05-02T02:10:38.262Z,13.40
2023-05-02T02:13:13.747Z,13.90
2023-05-02T02:15:42.220Z,13.40
2023-05-02T02:18:18.295Z,14.00
2023-05-02T02:20:47.053Z,13.80
2023-05-02T02:23:15.539Z,12.70
2023-05-02T02:25:45.233Z,11.80
2023-05-02T02:28:11.928Z,13.00
2023-05-02T02:30:38.736Z,13.40
2023-05-02T02:33:05.558Z,12.90
2023-05-02T02:35:40.330Z,13.00
2023-05-02T02:38:25.761Z,12.70
2023-05-02T02:41:02.519Z,12.60
2023-05-02T02:43:58.613Z,13.20
2023-05-02T02:46:52.476Z,12.80
2023-05-02T02:49:35.243Z,13.40
2023-05-02T02:52:16.072Z,13.10
2023-05-02T02:54:51.223Z,13.40
2023-05-02T02:57:41.201Z,12.80
2023-05-02T03:00:18.580Z,12.50
2023-05-02T03:02:47.575Z,12.60
2023-05-02T03:05:15.157Z,12.70
2023-05-02T03:07:42.042Z,12.50
2023-05-02T03:10:10.264Z,12.70
2023-05-02T03:12:37.158Z,13.10
2023-05-02T03:15:42.459Z,12.70
2023-05-02T03:18:09.244Z,13.00
2023-05-02T03:20:35.931Z,13.50
2023-05-02T03:23:03.202Z,12.90
2023-05-02T03:25:30.128Z,11.90
2023-05-02T03:28:00.799Z,12.30
2023-05-02T03:30:27.473Z,13.10
2023-05-02T03:32:54.220Z,13.70
2023-05-02T03:35:21.035Z,12.60
2023-05-02T03:37:47.855Z,12.20
2023-05-02T03:40:14.860Z,11.80
2023-05-02T03:42:42.316Z,12.00
2023-05-02T03:45:09.421Z,12.80
2023-05-02T03:47:36.405Z,12.20
2023-05-02T03:50:03.436Z,12.40
2023-05-02T03:52:30.124Z,12.30
2023-05-02T03:54:57.438Z,13.00
2023-05-02T03:57:24.233Z,12.80
2023-05-02T03:59:51.018Z,12.80
2023-05-02T04:02:17.776Z,12.60
2023-05-02T04:04:44.635Z,13.00
2023-05-02T04:07:18.031Z,11.60
2023-05-02T04:09:45.619Z,12.40
2023-05-02T04:12:13.137Z,12.30
2023-05-02T04:14:39.978Z,12.60
2023-05-02T04:17:06.991Z,12.30
2023-05-02T04:19:34.615Z,12.80
2023-05-02T04:22:03.078Z,12.70
2023-05-02T04:24:29.863Z,12.00
2023-05-02T04:26:56.646Z,12.20
2023-05-02T04:29:23.350Z,11.20
2023-05-02T04:31:51.163Z,12.00
2023-05-02T04:34:17.871Z,11.70
2023-05-02T04:36:47.683Z,11.40
2023-05-02T04:39:14.413Z,11.50
2023-05-02T04:41:41.700Z,10.60
2023-05-02T04:44:08.334Z,10.70
2023-05-02T04:46:35.050Z,11.40
2023-05-02T04:49:02.164Z,11.10
2023-05-02T04:51:31.743Z,10.90
2023-05-02T04:53:59.470Z,10.80
2023-05-02T04:56:26.319Z,10.20
2023-05-02T04:58:53.043Z,9.80
2023-05-02T05:01:19.908Z,9.90
2023-05-02T05:03:46.697Z,9.90
2023-05-02T05:06:13.603Z,9.80
2023-05-02T05:08:40.347Z,9.80
2023-05-02T05:11:07.099Z,9.80
2023-05-02T05:13:34.225Z,9.70
2023-05-02T05:16:00.989Z,10.30
2023-05-02T05:18:27.896Z,10.00
2023-05-02T05:20:54.634Z,10.70
2023-05-02T05:23:21.494Z,10.00
2023-05-02T05:25:48.310Z,10.20
2023-05-02T05:28:15.285Z,9.80
2023-05-02T05:30:42.012Z,10.20
2023-05-02T05:33:08.763Z,10.00
2023-05-02T05:35:36.679Z,9.70
2023-05-02T05:38:03.352Z,9.60
2023-05-02T05:40:30.108Z,9.50
2023-05-02T05:42:56.824Z,10.20
2023-05-02T05:45:23.632Z,9.60
2023-05-02T05:47:50.351Z,9.30
2023-05-02T05:50:17.145Z,9.50
2023-05-02T05:52:43.767Z,9.50
2023-05-02T05:55:11.213Z,9.50
2023-05-02T05:57:38.020Z,9.20
2023-05-02T06:00:05.341Z,9.40
2023-05-02T06:02:32.222Z,9.60
2023-05-02T06:04:59.080Z,9.60
2023-05-02T06:07:25.998Z,9.60
2023-05-02T06:09:52.750Z,9.60
2023-05-02T06:12:19.467Z,9.70
2023-05-02T06:14:46.267Z,9.40
2023-05-02T06:17:12.977Z,9.60
2023-05-02T06:19:40.941Z,9.50
2023-05-02T06:22:07.659Z,9.70
2023-05-02T06:24:34.630Z,9.80
2023-05-02T06:27:03.398Z,9.70
2023-05-02T06:29:30.118Z,9.90
2023-05-02T06:31:57.221Z,10.00
2023-05-02T06:34:24.156Z,10.50
2023-05-02T06:36:57.091Z,10.00
2023-05-02T06:39:23.825Z,9.90
2023-05-02T06:41:50.696Z,10.20
2023-05-02T06:44:17.578Z,10.00
2023-05-02T06:46:44.380Z,9.90
2023-05-02T06:49:11.275Z,10.40
2023-05-02T06:51:37.991Z,10.60
2023-05-02T06:54:04.761Z,10.30
2023-05-02T06:56:31.588Z,9.90
2023-05-02T06:58:58.436Z,9.90
2023-05-02T07:01:25.294Z,9.70
2023-05-02T07:03:53.164Z,9.60
2023-05-02T07:06:20.140Z,10.10
2023-05-02T07:08:46.807Z,10.40
2023-05-02T07:11:14.573Z,9.80
2023-05-02T07:13:41.378Z,9.50
2023-05-02T07:16:08.162Z,9.50
2023-05-02T07:18:35.003Z,9.80
2023-05-02T07:21:01.649Z,9.70
2023-05-02T07:23:28.364Z,9.70
2023-05-02T07:25:55.262Z,9.70
2023-05-02T07:28:21.943Z,9.60
2023-05-02T07:30:49.654Z,9.50
2023-05-02T07:33:16.361Z,9.60
2023-05-02T07:35:43.127Z,9.60
2023-05-02T07:38:09.851Z,9.60
2023-05-02T07:40:36.654Z,9.50
2023-05-02T07:43:03.341Z,9.40
2023-05-02T07:45:30.164Z,9.60
2023-05-02T07:47:56.917Z,9.40
2023-05-02T07:50:24.175Z,9.50
2023-05-02T07:52:50.897Z,9.40
2023-05-02T07:55:17.757Z,9.80
2023-05-02T07:57:44.605Z,9.90
2023-05-02T08:00:11.840Z,9.80
2023-05-02T08:02:38.701Z,9.90
2023-05-02T08:05:05.997Z,9.90
2023-05-02T08:07:33.602Z,9.90
2023-05-02T08:10:00.822Z,9.90
2023-05-02T08:12:27.904Z,9.90
2023-05-02T08:14:54.679Z,10.00
2023-05-02T08:17:21.845Z,9.90
2023-05-02T08:19:48.563Z,9.90
2023-05-02T08:22:15.277Z,9.90
2023-05-02T08:24:42.010Z,9.80
2023-05-02T08:27:08.776Z,9.70
2023-05-02T08:29:35.488Z,10.10
2023-05-02T08:32:02.339Z,10.20
2023-05-02T08:34:29.072Z,10.20
2023-05-02T08:36:58.016Z,9.90
2023-05-02T08:39:25.276Z,10.10
2023-05-02T08:41:53.007Z,10.20
2023-05-02T08:44:19.832Z,10.30
2023-05-02T08:46:48.980Z,10.60
2023-05-02T08:49:16.684Z,10.80
2023-05-02T08:51:46.382Z,10.40
2023-05-02T08:54:17.034Z,10.70
2023-05-02T08:56:46.106Z,10.40
2023-05-02T08:59:12.908Z,11.00
2023-05-02T09:01:44.760Z,10.80
2023-05-02T09:04:12.073Z,11.10
2023-05-02T09:06:38.916Z,10.90
2023-05-02T09:09:05.729Z,11.00
2023-05-02T09:11:32.534Z,11.50
2023-05-02T09:14:03.832Z,11.10
2023-05-02T09:16:39.113Z,11.10
2023-05-02T09:19:06.046Z,11.00
2023-05-02T09:21:40.213Z,11.10
2023-05-02T09:24:18.520Z,11.60
2023-05-02T09:27:00.233Z,11.50
2023-05-02T09:29:30.691Z,11.50
2023-05-02T09:31:57.565Z,12.00
2023-05-02T09:34:24.482Z,11.40
2023-05-02T09:36:54.214Z,11.30
2023-05-02T09:39:26.450Z,11.50
2023-05-02T09:41:54.198Z,11.30
2023-05-02T09:44:23.956Z,11.20
2023-05-02T09:46:54.422Z,11.30
2023-05-02T09:49:41.452Z,12.30
2023-05-02T09:52:15.635Z,11.60
2023-05-02T09:54:42.460Z,11.50
2023-05-02T09:57:10.934Z,11.80
2023-05-02T09:59:39.544Z,11.80
2023-05-02T10:02:09.715Z,11.70
2023-05-02T10:04:39.022Z,12.00
2023-05-02T10:07:10.243Z,12.00
2023-05-02T10:09:43.139Z,11.70
2023-05-02T10:12:09.939Z,12.10
2023-05-02T10:14:41.703Z,12.00
2023-05-02T10:17:16.459Z,13.10
2023-05-02T10:19:57.264Z,12.60
2023-05-02T10:22:25.684Z,12.00
2023-05-02T10:24:53.702Z,11.40
2023-05-02T10:27:20.571Z,11.90
2023-05-02T10:29:48.579Z,12.40
2023-05-02T10:32:17.815Z,12.00
2023-05-02T10:34:46.343Z,12.40
2023-05-02T10:37:13.156Z,13.30
2023-05-02T10:39:39.975Z,12.40
2023-05-02T10:42:07.925Z,12.20
2023-05-02T10:44:39.844Z,12.20
2023-05-02T10:47:23.929Z,12.50
2023-05-02T10:49:55.153Z,12.90
2023-05-02T10:52:38.280Z,12.90
2023-05-02T10:55:23.131Z,12.40
2023-05-02T10:57:59.373Z,12.20
2023-05-02T11:00:30.916Z,12.90
2023-05-02T11:02:58.136Z,12.50
2023-05-02T11:05:26.252Z,12.50
2023-05-02T11:08:23.226Z,12.70
2023-05-02T11:10:50.357Z,12.30
2023-05-02T11:13:37.088Z,12.90
2023-05-02T11:16:04.033Z,13.30
2023-05-02T11:19:00.921Z,12.10
2023-05-02T11:21:32.845Z,12.40
2023-05-02T11:24:40.890Z,12.10
2023-05-02T11:27:29.087Z,11.90
2023-05-02T11:29:57.462Z,12.90
2023-05-02T11:32:27.336Z,12.30
2023-05-02T11:34:56.005Z,12.70
2023-05-02T11:37:22.651Z,13.10
2023-05-02T11:39:51.460Z,12.70
2023-05-02T11:42:32.411Z,12.90
2023-05-02T11:45:01.358Z,13.00
2023-05-02T11:47:29.589Z,13.10
2023-05-02T11:49:57.564Z,12.40
2023-05-02T11:52:25.626Z,12.80
2023-05-02T11:54:58.622Z,13.20
2023-05-02T11:57:25.496Z,13.30
2023-05-02T11:59:58.825Z,13.40
2023-05-02T12:02:45.361Z,12.60
2023-05-02T12:05:14.411Z,12.80
2023-05-02T12:07:44.816Z,12.90
2023-05-02T12:10:13.129Z,13.00
2023-05-02T12:12:41.068Z,12.60
2023-05-02T12:15:11.101Z,12.30
2023-05-02T12:17:42.149Z,12.80
2023-05-02T12:20:10.599Z,13.20
2023-05-02T12:22:38.264Z,12.40
2023-05-02T12:25:06.578Z,12.30
2023-05-02T12:27:34.632Z,12.40
2023-05-02T12:30:01.878Z,13.00
2023-05-02T12:32:31.562Z,12.00
2023-05-02T12:34:59.489Z,12.40
2023-05-02T12:37:27.682Z,13.40
2023-05-02T12:39:55.775Z,13.30
2023-05-02T12:42:25.551Z,13.50
2023-05-02T12:44:53.235Z,14.00
2023-05-02T12:47:21.568Z,13.00
2023-05-02T12:49:53.380Z,13.00
2023-05-02T12:52:21.834Z,12.30
2023-05-02T12:54:49.872Z,12.40
2023-05-02T12:57:26.608Z,12.80
2023-05-02T12:59:54.436Z,12.30
2023-05-02T13:02:22.650Z,12.30
2023-05-02T13:04:49.480Z,13.60
2023-05-02T13:07:16.129Z,13.20
2023-05-02T13:09:42.796Z,12.70
2023-05-02T13:12:10.010Z,12.80
2023-05-02T13:14:36.806Z,12.30
2023-05-02T13:17:04.112Z,12.80
2023-05-02T13:19:31.431Z,13.10
2023-05-02T13:21:58.339Z,12.40
2023-05-02T13:24:25.118Z,12.40
2023-05-02T13:26:52.001Z,12.20
2023-05-02T13:29:18.691Z,12.70
2023-05-02T13:31:45.473Z,12.70
2023-05-02T13:34:12.548Z,12.70
2023-05-02T13:36:45.900Z,12.50
2023-05-02T13:39:13.823Z,13.50
2023-05-02T13:41:40.667Z,13.00
2023-05-02T13:44:09.230Z,13.20
2023-05-02T13:46:37.912Z,13.30
2023-05-02T13:49:05.268Z,13.20
2023-05-02T13:51:35.495Z,13.10
2023-05-02T13:54:02.254Z,13.00
2023-05-02T13:56:29.004Z,12.60
2023-05-02T13:58:56.059Z,12.40
2023-05-02T14:01:26.754Z,12.70
2023-05-02T14:03:54.897Z,12.50
2023-05-02T14:06:21.981Z,12.50
2023-05-02T14:08:48.936Z,12.70
2023-05-02T14:11:15.788Z,13.10
2023-05-02T14:13:42.539Z,12.80
2023-05-02T14:16:09.386Z,12.30
2023-05-02T14:18:36.278Z,12.30
2023-05-02T14:21:04.194Z,12.60
2023-05-02T14:23:31.141Z,12.60
2023-05-02T14:25:58.279Z,12.70
2023-05-02T14:28:25.027Z,12.50
2023-05-02T14:30:52.008Z,12.90
2023-05-02T14:33:18.680Z,12.90
2023-05-02T14:35:45.923Z,12.70
2023-05-02T14:38:12.668Z,12.50
2023-05-02T14:40:39.394Z,12.20
2023-05-02T14:43:06.542Z,12.50
2023-05-02T14:45:33.305Z,12.30
2023-05-02T14:48:00.054Z,12.20
2023-05-02T14:50:26.971Z,12.10
2023-05-02T14:52:53.793Z,12.50
2023-05-02T14:55:20.589Z,13.00
2023-05-02T14:57:47.995Z,12.90
2023-05-02T15:00:16.042Z,12.40
2023-05-02T15:02:42.824Z,13.10
2023-05-02T15:05:12.341Z,13.40
2023-05-02T15:07:39.459Z,12.40
2023-05-02T15:10:06.940Z,12.10
2023-05-02T15:12:33.943Z,12.20
2023-05-02T15:15:00.692Z,13.00
2023-05-02T15:17:27.382Z,13.00
2023-05-02T15:19:55.832Z,12.60
2023-05-02T15:22:25.998Z,12.30
2023-05-02T15:24:52.723Z,12.10
2023-05-02T15:27:19.771Z,12.60
2023-05-02T15:29:46.522Z,12.20
2023-05-02T15:32:13.583Z,12.30
2023-05-02T15:34:40.508Z,12.70
2023-05-02T15:37:08.084Z,12.50
2023-05-02T15:39:34.712Z,12.80
2023-05-02T15:42:05.758Z,12.50
2023-05-02T15:44:37.096Z,12.40
2023-05-02T15:47:04.652Z,12.10
2023-05-02T15:49:34.561Z,12.60
2023-05-02T15:52:02.536Z,12.20
2023-05-02T15:54:29.700Z,11.80
2023-05-02T15:56:56.425Z,12.20
2023-05-02T15:59:23.199Z,12.40
2023-05-02T16:01:49.958Z,12.30
2023-05-02T16:04:16.788Z,12.40
2023-05-02T16:06:43.569Z,12.20
2023-05-02T16:09:10.696Z,12.50
2023-05-02T16:11:37.548Z,12.20
2023-05-02T16:14:04.340Z,12.50
2023-05-02T16:16:32.656Z,12.40
2023-05-02T16:18:59.868Z,12.20
2023-05-02T16:21:28.535Z,11.80
2023-05-02T16:23:55.320Z,12.10
2023-05-02T16:26:22.110Z,12.70
2023-05-02T16:28:48.886Z,13.30
2023-05-02T16:31:16.095Z,11.80
2023-05-02T16:33:42.981Z,11.90
2023-05-02T16:36:10.180Z,11.70
2023-05-02T16:38:36.836Z,11.50
2023-05-02T16:41:05.183Z,11.70
2023-05-02T16:43:31.843Z,11.80
2023-05-02T16:46:02.561Z,11.80
2023-05-02T16:48:29.565Z,11.80
2023-05-02T16:50:57.157Z,11.60
2023-05-02T16:53:24.766Z,11.70
2023-05-02T16:55:51.615Z,11.50
2023-05-02T16:58:18.517Z,11.40
2023-05-02T17:00:45.459Z,11.50
2023-05-02T17:03:15.358Z,11.70
2023-05-02T17:05:42.064Z,11.80
2023-05-02T17:08:09.832Z,11.50
2023-05-02T17:10:37.708Z,11.50
2023-05-02T17:13:04.408Z,11.80
2023-05-02T17:15:31.304Z,11.30
2023-05-02T17:17:58.169Z,11.30
2023-05-02T17:20:25.015Z,11.10
2023-05-02T17:22:52.566Z,11.10
2023-05-02T17:25:19.470Z,11.30
2023-05-02T17:27:46.593Z,11.20
2023-05-02T17:30:13.992Z,11.00
2023-05-02T17:32:41.789Z,10.90
2023-05-02T17:35:08.985Z,11.00
2023-05-02T17:37:38.206Z,11.40
2023-05-02T17:40:05.981Z,11.10
2023-05-02T17:42:32.714Z,11.20
2023-05-02T17:44:59.458Z,11.00
2023-05-02T17:47:26.409Z,10.90
2023-05-02T17:49:53.796Z,11.10
2023-05-02T17:52:21.354Z,11.40
2023-05-02T17:54:48.082Z,11.00
2023-05-02T17:57:14.848Z,10.80
2023-05-02T17:59:41.842Z,11.50
2023-05-02T18:02:10.285Z,10.80
2023-05-02T18:04:37.375Z,10.70
2023-05-02T18:07:06.023Z,10.50
2023-05-02T18:09:33.035Z,10.60
2023-05-02T18:12:00.568Z,10.50
2023-05-02T18:14:27.280Z,10.50
2023-05-02T18:16:53.966Z,10.50
2023-05-02T18:19:21.938Z,10.50
2023-05-02T18:21:48.624Z,10.40
2023-05-02T18:24:15.326Z,10.40
2023-05-02T18:26:43.102Z,10.30
2023-05-02T18:29:10.051Z,10.60
2023-05-02T18:31:40.063Z,10.40
2023-05-02T18:34:07.316Z,10.20
2023-05-02T18:36:34.061Z,10.20
2023-05-02T18:39:00.876Z,10.40
2023-05-02T18:41:27.653Z,9.90
2023-05-02T18:43:54.689Z,9.90
2023-05-02T18:46:21.475Z,10.00
2023-05-02T18:48:48.450Z,9.90
2023-05-02T18:51:15.526Z,9.90
2023-05-02T18:53:42.241Z,10.00
2023-05-02T18:56:13.503Z,9.80
2023-05-02T18:58:41.243Z,9.80
2023-05-02T19:01:15.578Z,9.60
2023-05-02T19:03:43.842Z,9.60
2023-05-02T19:06:10.946Z,9.60
2023-05-02T19:08:38.173Z,9.70
2023-05-02T19:11:05.478Z,9.80
2023-05-02T19:13:32.510Z,9.50
2023-05-02T19:15:59.460Z,9.50
2023-05-02T19:18:26.243Z,9.50
2023-05-02T19:20:53.040Z,9.30
2023-05-02T19:23:20.712Z,9.20
2023-05-02T19:25:47.896Z,9.00
2023-05-02T19:28:17.873Z,9.10
2023-05-02T19:30:45.122Z,9.10
2023-05-02T19:33:12.034Z,9.10
2023-05-02T19:35:39.561Z,9.10
2023-05-02T19:38:06.386Z,8.90
2023-05-02T19:40:33.217Z,8.80
2023-05-02T19:43:00.031Z,8.80
2023-05-02T19:45:26.843Z,8.90
2023-05-02T19:47:53.654Z,8.90
2023-05-02T19:50:20.454Z,8.80
2023-05-02T19:52:47.140Z,8.80
2023-05-02T19:55:16.066Z,8.80
2023-05-02T19:57:44.639Z,8.70
2023-05-02T20:00:12.918Z,8.70
2023-05-02T20:02:39.872Z,8.70
2023-05-02T20:05:07.340Z,8.80
2023-05-02T20:07:34.077Z,8.70
2023-05-02T20:10:01.191Z,8.40
2023-05-02T20:12:28.213Z,8.50
2023-05-02T20:14:54.987Z,8.40
2023-05-02T20:17:21.696Z,8.30
2023-05-02T20:19:48.617Z,8.30
2023-05-02T20:22:16.453Z,8.30
2023-05-02T20:24:43.224Z,8.30
2023-05-02T20:27:10.002Z,8.40
2023-05-02T20:29:36.776Z,8.40
2023-05-02T20:32:03.604Z,8.20
2023-05-02T20:34:30.397Z,8.10
2023-05-02T20:36:57.138Z,8.10
2023-05-02T20:39:24.031Z,8.10
2023-05-02T20:41:51.062Z,8.20
2023-05-02T20:44:18.604Z,8.10
2023-05-02T20:46:46.355Z,8.10
2023-05-02T20:49:13.069Z,8.00
2023-05-02T20:51:39.964Z,8.00
2023-05-02T20:54:06.659Z,7.90
2023-05-02T20:56:33.382Z,7.90
2023-05-02T20:59:00.126Z,7.90
2023-05-02T21:01:27.041Z,8.00
2023-05-02T21:03:53.884Z,7.80
2023-05-02T21:06:21.469Z,7.90
2023-05-02T21:08:48.346Z,7.80
2023-05-02T21:11:16.207Z,7.80
2023-05-02T21:13:43.414Z,7.90
2023-05-02T21:16:20.413Z,7.70
2023-05-02T21:18:48.083Z,7.70
2023-05-02T21:21:14.918Z,7.60
2023-05-02T21:23:41.690Z,7.60
2023-05-02T21:26:08.573Z,7.60
2023-05-02T21:28:35.372Z,7.60
2023-05-02T21:31:02.230Z,7.60
2023-05-02T21:33:29.087Z,7.50
2023-05-02T21:35:59.233Z,7.30
2023-05-02T21:38:26.466Z,7.10
2023-05-02T21:40:54.289Z,7.10
2023-05-02T21:43:21.086Z,6.90
2023-05-02T21:45:49.497Z,7.10
2023-05-02T21:48:17.111Z,7.10
2023-05-02T21:50:44.763Z,7.00
2023-05-02T21:53:11.977Z,6.80
2023-05-02T21:55:41.541Z,6.60
2023-05-02T21:58:10.293Z,6.60
2023-05-02T22:00:41.341Z,6.50
2023-05-02T22:03:11.469Z,6.50
2023-05-02T22:05:42.156Z,6.40
2023-05-02T22:08:10.964Z,6.30
2023-05-02T22:10:39.752Z,6.40
2023-05-02T22:13:09.515Z,6.60
2023-05-02T22:15:36.688Z,6.50
2023-05-02T22:18:06.647Z,6.20
2023-05-02T22:20:33.496Z,6.30
2023-05-02T22:23:00.248Z,6.20
2023-05-02T22:25:29.441Z,6.20
2023-05-02T22:27:56.086Z,6.30
2023-05-02T22:30:22.850Z,6.10
2023-05-02T22:32:49.654Z,6.00
2023-05-02T22:35:16.613Z,5.90
2023-05-02T22:37:43.263Z,5.90
2023-05-02T22:40:10.531Z,5.90
2023-05-02T22:42:37.234Z,5.80
2023-05-02T22:45:04.542Z,5.70
2023-05-02T22:47:32.280Z,5.70
2023-05-02T22:49:59.554Z,5.80
2023-05-02T22:52:27.451Z,5.70
2023-05-02T22:54:54.302Z,5.60
2023-05-02T22:57:21.128Z,5.50
2023-05-02T22:59:47.834Z,5.50
2023-05-02T23:02:14.707Z,5.40
2023-05-02T23:04:41.467Z,5.50
2023-05-02T23:07:08.240Z,5.40
2023-05-02T23:09:34.958Z,5.30
2023-05-02T23:12:03.871Z,5.30
2023-05-02T23:14:30.648Z,5.20
2023-05-02T23:16:58.277Z,5.30
2023-05-02T23:19:25.467Z,5.10
2023-05-02T23:21:52.104Z,5.10
2023-05-02T23:24:18.800Z,5.10
2023-05-02T23:26:45.507Z,4.90
2023-05-02T23:29:12.392Z,5.00
2023-05-02T23:31:39.729Z,5.00
2023-05-02T23:34:07.138Z,4.90
2023-05-02T23:36:34.677Z,4.90
2023-05-02T23:39:05.753Z,4.90
2023-05-02T23:41:32.700Z,4.90
2023-05-02T23:44:00.578Z,4.70
2023-05-02T23:46:27.324Z,4.70
2023-05-02T23:48:54.189Z,4.50
2023-05-02T23:51:20.881Z,4.60
2023-05-02T23:53:47.624Z,4.50
2023-05-02T23:56:14.286Z,4.50
2023-05-02T23:58:40.958Z,4.40
